^^
B2 Weather Station Historical Data
Daily Summary for November 8, 2018 Units:  English    Metric   Both
Daily Weekly Monthly Yearly Custom
  High: Low: Average:
Temperature: 41.9 °F 31.7 °F 35.2 °F
Dew Point: 32.7 °F 25.6 °F 29.2 °F
Humidity: 91% 64% 79%
Wind Speed: 11.5mph 0.0mph 3.2mph
Wind Gust: 8.2mph - -
Wind- - South
Pressure: 30.44 in 30.26 in -
Precipitation: 0.00 in    
Historical Graphs
 
 
Tabular Data for November 8, 2018
Time Temperature Dew Point Pressure Wind Wind Speed Wind Gust Humidity Rainfall Rate (Hourly) solar
00:04 33.3 °F 28.4 °F 30.34 in NW 4.6 mph 3.9 mph 82% 0.00 in 0.00 W/m2
00:09 33.3 °F 28.4 °F 30.34 in WNW 10.4 mph 5.4 mph 82% 0.00 in 0.00 W/m2
00:14 33.1 °F 27.9 °F 30.34 in NNW 4.6 mph 4.1 mph 81% 0.00 in 0.00 W/m2
00:19 33.0 °F 27.8 °F 30.34 in NNW 8.1 mph 5.8 mph 81% 0.00 in 0.00 W/m2
00:24 32.8 °F 27.6 °F 30.34 in NW 8.1 mph 4.5 mph 81% 0.00 in 0.00 W/m2
00:29 32.7 °F 27.5 °F 30.34 in NNW 8.1 mph 5.0 mph 81% 0.00 in 0.00 W/m2
00:34 32.6 °F 27.1 °F 30.34 in NNW 8.1 mph 8.2 mph 80% 0.00 in 0.00 W/m2
00:39 32.4 °F 26.9 °F 30.34 in North 6.9 mph 3.9 mph 80% 0.00 in 0.00 W/m2
00:44 32.4 °F 26.6 °F 30.34 in North 10.4 mph 7.7 mph 79% 0.00 in 0.00 W/m2
00:49 32.3 °F 26.5 °F 30.34 in NNW 10.4 mph 4.6 mph 79% 0.00 in 0.00 W/m2
00:54 32.3 °F 26.5 °F 30.35 in NNW 8.1 mph 6.7 mph 79% 0.00 in 0.00 W/m2
00:59 32.3 °F 26.8 °F 30.35 in NW 9.2 mph 5.5 mph 80% 0.00 in 0.00 W/m2
01:04 32.2 °F 26.4 °F 30.35 in NW 11.5 mph 7.6 mph 79% 0.00 in 0.00 W/m2
01:09 32.2 °F 26.1 °F 30.35 in WNW 10.0 mph 6.3 mph 78% 0.00 in 0.00 W/m2
01:14 32.2 °F 26.1 °F 30.35 in NW 8.1 mph 4.1 mph 78% 0.00 in 0.00 W/m2
01:19 32.2 °F 26.1 °F 30.36 in North 10.4 mph 6.2 mph 78% 0.00 in 0.00 W/m2
01:24 32.2 °F 26.1 °F 30.36 in NW 6.9 mph 5.2 mph 78% 0.00 in 0.00 W/m2
01:29 32.3 °F 26.5 °F 30.36 in NNW 8.1 mph 4.8 mph 79% 0.00 in 0.00 W/m2
01:34 32.3 °F 26.5 °F 30.36 in NNW 9.2 mph 6.1 mph 79% 0.00 in 0.00 W/m2
01:39 32.2 °F 26.4 °F 30.36 in NNW 5.8 mph 3.5 mph 79% 0.00 in 0.00 W/m2
01:44 32.3 °F 26.2 °F 30.36 in North 9.2 mph 6.2 mph 78% 0.00 in 0.00 W/m2
01:49 32.3 °F 26.2 °F 30.36 in North 8.1 mph 4.2 mph 78% 0.00 in 0.00 W/m2
01:54 32.3 °F 26.2 °F 30.36 in NW 4.6 mph 2.8 mph 78% 0.00 in 0.00 W/m2
01:59 32.3 °F 26.5 °F 30.36 in NNW 4.6 mph 3.9 mph 79% 0.00 in 0.00 W/m2
02:04 32.3 °F 26.8 °F 30.36 in NNW 5.8 mph 2.8 mph 80% 0.00 in 0.00 W/m2
02:09 32.3 °F 26.8 °F 30.35 in NNW 4.0 mph 2.2 mph 80% 0.00 in 0.00 W/m2
02:14 32.2 °F 26.7 °F 30.35 in NNW 5.8 mph 3.0 mph 80% 0.00 in 0.00 W/m2
02:19 32.2 °F 26.7 °F 30.36 in North 5.8 mph 2.6 mph 80% 0.00 in 0.00 W/m2
02:24 32.3 °F 26.5 °F 30.35 in North 10.0 mph 8.1 mph 79% 0.00 in 0.00 W/m2
02:29 32.2 °F 26.4 °F 30.35 in North 10.4 mph 7.1 mph 79% 0.00 in 0.00 W/m2
02:34 32.2 °F 26.4 °F 30.35 in NNW 9.2 mph 5.0 mph 79% 0.00 in 0.00 W/m2
02:39 32.1 °F 26.3 °F 30.35 in NNW 7.0 mph 6.4 mph 79% 0.00 in 0.00 W/m2
02:44 32.1 °F 26.3 °F 30.36 in NNW 8.1 mph 5.9 mph 79% 0.00 in 0.00 W/m2
02:49 32.1 °F 26.6 °F 30.36 in NNW 6.0 mph 4.5 mph 80% 0.00 in 0.00 W/m2
02:54 32.1 °F 26.6 °F 30.36 in NNW 4.6 mph 2.6 mph 80% 0.00 in 0.00 W/m2
02:59 32.1 °F 26.6 °F 30.35 in North 4.6 mph 3.6 mph 80% 0.00 in 0.00 W/m2
03:04 32.1 °F 26.6 °F 30.36 in NW 6.9 mph 3.8 mph 80% 0.00 in 0.00 W/m2
03:09 32.1 °F 26.3 °F 30.36 in NNW 5.8 mph 3.9 mph 79% 0.00 in 0.00 W/m2
03:14 32.1 °F 26.6 °F 30.36 in NNW 3.5 mph 2.5 mph 80% 0.00 in 0.00 W/m2
03:19 32.1 °F 26.6 °F 30.36 in NNW 3.5 mph 2.7 mph 80% 0.00 in 0.00 W/m2
03:24 32.2 °F 26.4 °F 30.36 in NNW 3.5 mph 3.6 mph 79% 0.00 in 0.00 W/m2
03:29 32.2 °F 26.7 °F 30.36 in NNW 4.6 mph 3.9 mph 80% 0.00 in 0.00 W/m2
03:34 32.2 °F 26.7 °F 30.36 in NNW 6.9 mph 5.1 mph 80% 0.00 in 0.00 W/m2
03:39 32.1 °F 26.3 °F 30.36 in NW 5.8 mph 2.8 mph 79% 0.00 in 0.00 W/m2
03:44 32.1 °F 26.3 °F 30.37 in NW 4.6 mph 2.5 mph 79% 0.00 in 0.00 W/m2
03:49 32.2 °F 26.1 °F 30.37 in NNW 8.0 mph 5.2 mph 78% 0.00 in 0.00 W/m2
03:54 32.1 °F 25.7 °F 30.37 in NNW 6.9 mph 5.4 mph 77% 0.00 in 0.00 W/m2
03:59 32.2 °F 26.4 °F 30.37 in NNW 5.8 mph 3.6 mph 79% 0.00 in 0.00 W/m2
04:04 32.1 °F 26.3 °F 30.37 in NNW 6.0 mph 3.2 mph 79% 0.00 in 0.00 W/m2
04:09 32.1 °F 26.0 °F 30.37 in NNW 4.0 mph 3.0 mph 78% 0.00 in 0.00 W/m2
04:14 32.1 °F 26.0 °F 30.38 in NW 5.8 mph 2.1 mph 78% 0.00 in 0.00 W/m2
04:19 32.1 °F 26.0 °F 30.38 in NNW 3.5 mph 2.9 mph 78% 0.00 in 0.00 W/m2
04:24 32.2 °F 26.1 °F 30.38 in Calm     78% 0.00 in 0.00 W/m2
04:29 32.2 °F 26.4 °F 30.38 in NW 3.5 mph 2.3 mph 79% 0.00 in 0.00 W/m2
04:34 32.2 °F 26.4 °F 30.38 in NNW 3.5 mph 1.4 mph 79% 0.00 in 0.00 W/m2
04:39 32.2 °F 26.4 °F 30.38 in NW 2.3 mph 1.2 mph 79% 0.00 in 0.00 W/m2
04:44 32.2 °F 26.4 °F 30.39 in NNW 3.5 mph 1.6 mph 79% 0.00 in 0.00 W/m2
04:49 32.2 °F 26.4 °F 30.39 in NW 4.6 mph 2.1 mph 79% 0.00 in 0.00 W/m2
04:54 32.1 °F 26.0 °F 30.39 in NNW 3.5 mph 1.6 mph 78% 0.00 in 0.00 W/m2
04:59 32.1 °F 26.0 °F 30.39 in NW 4.6 mph 3.0 mph 78% 0.00 in 0.00 W/m2
05:04 32.1 °F 26.0 °F 30.39 in NNW 4.0 mph 3.7 mph 78% 0.00 in 0.00 W/m2
05:09 32.2 °F 26.1 °F 30.39 in North 4.0 mph 2.2 mph 78% 0.00 in 0.00 W/m2
05:14 32.1 °F 26.0 °F 30.39 in NNW 5.8 mph 3.4 mph 78% 0.00 in 0.00 W/m2
05:19 32.1 °F 26.0 °F 30.39 in NNW 3.5 mph 1.2 mph 78% 0.00 in 0.00 W/m2
05:24 32.0 °F 26.2 °F 30.39 in North 4.0 mph 2.9 mph 79% 0.00 in 0.00 W/m2
05:29 32.0 °F 26.5 °F 30.39 in North 4.0 mph 2.6 mph 80% 0.00 in 0.00 W/m2
05:34 32.0 °F 26.5 °F 30.39 in NNW 6.0 mph 3.4 mph 80% 0.00 in 0.00 W/m2
05:39 32.0 °F 26.5 °F 30.39 in North 3.5 mph 2.0 mph 80% 0.00 in 0.00 W/m2
05:44 32.0 °F 26.5 °F 30.39 in NW 3.5 mph 2.2 mph 80% 0.00 in 0.00 W/m2
05:49 31.9 °F 26.1 °F 30.39 in NNW 3.5 mph 2.3 mph 79% 0.00 in 0.00 W/m2
05:54 31.9 °F 25.8 °F 30.39 in North 2.3 mph 2.1 mph 78% 0.00 in 0.00 W/m2
05:59 31.9 °F 26.1 °F 30.39 in NNW 5.0 mph 3.8 mph 79% 0.00 in 0.00 W/m2
06:04 31.9 °F 25.8 °F 30.39 in NNW 3.5 mph 2.1 mph 78% 0.00 in 0.00 W/m2
06:09 31.9 °F 26.1 °F 30.39 in NNW 2.3 mph 0.4 mph 79% 0.00 in 0.00 W/m2
06:14 31.9 °F 26.1 °F 30.40 in NNW 4.0 mph 1.8 mph 79% 0.00 in 0.00 W/m2
06:19 31.8 °F 26.0 °F 30.40 in NNE 3.5 mph 0.4 mph 79% 0.00 in 0.00 W/m2
06:24 31.7 °F 25.9 °F 30.40 in NW 4.6 mph 2.6 mph 79% 0.00 in 0.00 W/m2
06:29 31.7 °F 25.6 °F 30.40 in NW 1.2 mph   78% 0.00 in 0.00 W/m2
06:34 31.8 °F 25.7 °F 30.40 in NW 2.3 mph 1.5 mph 78% 0.00 in 0.00 W/m2
06:39 31.9 °F 26.4 °F 30.40 in NNW 3.5 mph 2.0 mph 80% 0.00 in 0.00 W/m2
06:44 31.9 °F 26.1 °F 30.40 in NNW 2.3 mph 1.2 mph 79% 0.00 in 0.00 W/m2
06:49 31.9 °F 26.7 °F 30.40 in NNW 2.3 mph 1.6 mph 81% 0.00 in 5.00 W/m2
06:54 31.9 °F 26.7 °F 30.40 in North 3.5 mph 2.3 mph 81% 0.00 in 9.00 W/m2
06:59 31.9 °F 26.1 °F 30.41 in NNW 4.6 mph 2.8 mph 79% 0.00 in 12.00 W/m2
07:04 31.9 °F 26.1 °F 30.41 in NNW 3.5 mph 2.0 mph 79% 0.00 in 19.00 W/m2
07:09 31.9 °F 25.8 °F 30.41 in NW 3.5 mph 1.6 mph 78% 0.00 in 18.00 W/m2
07:14 32.0 °F 25.9 °F 30.41 in NW 2.3 mph 1.2 mph 78% 0.00 in 26.00 W/m2
07:19 32.1 °F 26.0 °F 30.41 in NW 2.3 mph 1.5 mph 78% 0.00 in 32.00 W/m2
07:24 32.1 °F 26.3 °F 30.42 in North 2.3 mph 0.3 mph 79% 0.00 in 39.00 W/m2
07:29 32.3 °F 26.5 °F 30.42 in North 3.5 mph 1.0 mph 79% 0.00 in 40.00 W/m2
07:34 32.4 °F 26.9 °F 30.42 in North 4.0 mph 2.8 mph 80% 0.00 in 47.00 W/m2
07:39 32.5 °F 26.7 °F 30.42 in NNE 3.5 mph 2.0 mph 79% 0.00 in 49.00 W/m2
07:44 32.5 °F 26.7 °F 30.42 in ENE 3.5 mph 2.7 mph 79% 0.00 in 54.00 W/m2
07:49 32.5 °F 26.4 °F 30.42 in East 4.6 mph 1.0 mph 78% 0.00 in 60.00 W/m2
07:54 32.6 °F 26.5 °F 30.42 in ENE 4.0 mph 3.3 mph 78% 0.00 in 62.00 W/m2
07:59 32.7 °F 26.9 °F 30.42 in East 6.0 mph 4.2 mph 79% 0.00 in 70.00 W/m2
08:04 32.8 °F 27.0 °F 30.43 in ENE 3.5 mph 2.5 mph 79% 0.00 in 77.00 W/m2
08:09 32.9 °F 27.1 °F 30.43 in NE 3.5 mph 1.8 mph 79% 0.00 in 65.00 W/m2
08:14 33.0 °F 27.2 °F 30.43 in ENE 4.0 mph 2.6 mph 79% 0.00 in 88.00 W/m2
08:19 33.1 °F 27.3 °F 30.43 in ENE 5.0 mph 4.9 mph 79% 0.00 in 77.00 W/m2
08:24 33.0 °F 26.9 °F 30.43 in ENE 3.5 mph 3.6 mph 78% 0.00 in 81.00 W/m2
08:29 32.9 °F 26.8 °F 30.43 in East 2.3 mph 1.5 mph 78% 0.00 in 98.00 W/m2
08:34 33.0 °F 26.9 °F 30.43 in East 3.5 mph 2.2 mph 78% 0.00 in 111.00 W/m2
08:39 33.2 °F 27.1 °F 30.44 in ESE 4.6 mph 2.8 mph 78% 0.00 in 104.00 W/m2
08:44 33.4 °F 27.3 °F 30.44 in SE 6.0 mph 4.3 mph 78% 0.00 in 134.00 W/m2
08:49 33.4 °F 27.0 °F 30.44 in East 6.0 mph 2.7 mph 77% 0.00 in 132.00 W/m2
08:54 33.5 °F 27.1 °F 30.44 in ENE 3.5 mph 2.3 mph 77% 0.00 in 135.00 W/m2
08:59 33.6 °F 27.2 °F 30.44 in SE 3.5 mph 2.5 mph 77% 0.00 in 125.00 W/m2
09:04 33.7 °F 27.3 °F 30.44 in SSE 4.6 mph 2.7 mph 77% 0.00 in 151.00 W/m2
09:09 33.6 °F 26.8 °F 30.44 in SSW 2.3 mph 0.8 mph 76% 0.00 in 188.00 W/m2
09:14 33.8 °F 27.4 °F 30.44 in SW 3.5 mph 2.3 mph 77% 0.00 in 272.00 W/m2
09:19 34.2 °F 27.7 °F 30.44 in West 3.5 mph 1.5 mph 77% 0.00 in 545.00 W/m2
09:24 34.5 °F 27.4 °F 30.43 in WNW 4.6 mph 1.8 mph 75% 0.00 in 466.00 W/m2
09:29 34.8 °F 27.7 °F 30.44 in WSW 4.6 mph 1.6 mph 75% 0.00 in 408.00 W/m2
09:34 34.8 °F 27.7 °F 30.44 in NW 3.0 mph 2.3 mph 75% 0.00 in 248.00 W/m2
09:39 34.8 °F 27.4 °F 30.44 in NW 3.5 mph 0.7 mph 74% 0.00 in 288.00 W/m2
09:44 35.1 °F 28.0 °F 30.44 in WSW 4.6 mph 2.0 mph 75% 0.00 in 360.00 W/m2
09:49 35.0 °F 27.2 °F 30.44 in WSW 6.0 mph 3.5 mph 73% 0.00 in 304.00 W/m2
09:54 35.0 °F 27.9 °F 30.44 in West 3.5 mph 0.8 mph 75% 0.00 in 304.00 W/m2
09:59 35.1 °F 27.6 °F 30.44 in NW 3.5 mph 1.6 mph 74% 0.00 in 309.00 W/m2
10:04 35.3 °F 27.8 °F 30.44 in North 1.2 mph 0.1 mph 74% 0.00 in 299.00 W/m2
10:09 35.7 °F 28.6 °F 30.44 in North 1.0 mph   75% 0.00 in 315.00 W/m2
10:14 36.1 °F 28.6 °F 30.44 in SW 3.5 mph   74% 0.00 in 355.00 W/m2
10:19 36.6 °F 29.1 °F 30.44 in SW 2.3 mph 1.0 mph 74% 0.00 in 325.00 W/m2
10:24 37.1 °F 29.6 °F 30.44 in South 2.3 mph 1.2 mph 74% 0.00 in 592.00 W/m2
10:29 37.7 °F 29.8 °F 30.43 in SSE 3.5 mph 0.3 mph 73% 0.00 in 573.00 W/m2
10:34 38.0 °F 29.4 °F 30.43 in SSE 3.5 mph 0.7 mph 71% 0.00 in 345.00 W/m2
10:39 38.1 °F 29.2 °F 30.43 in South 2.3 mph   70% 0.00 in 647.00 W/m2
10:44 38.7 °F 30.8 °F 30.43 in South 1.2 mph   73% 0.00 in 649.00 W/m2
10:49 39.5 °F 31.2 °F 30.43 in NNE 3.5 mph 2.0 mph 72% 0.00 in 684.00 W/m2
10:54 39.7 °F 31.1 °F 30.43 in Calm   0.5 mph 71% 0.00 in 680.00 W/m2
10:59 39.7 °F 31.1 °F 30.43 in Calm     71% 0.00 in 513.00 W/m2
11:04 39.8 °F 30.8 °F 30.43 in Calm     70% 0.00 in 566.00 W/m2
11:09 39.8 °F 30.8 °F 30.42 in Calm     70% 0.00 in 675.00 W/m2
11:14 39.9 °F 30.5 °F 30.42 in NE 2.3 mph 0.6 mph 69% 0.00 in 624.00 W/m2
11:19 39.7 °F 30.4 °F 30.42 in Calm     69% 0.00 in 621.00 W/m2
11:24 39.1 °F 29.4 °F 30.41 in NE 2.3 mph   68% 0.00 in 260.00 W/m2
11:29 38.7 °F 29.4 °F 30.41 in Calm     69% 0.00 in 533.00 W/m2
11:34 38.7 °F 29.8 °F 30.41 in Calm     70% 0.00 in 130.00 W/m2
11:39 38.7 °F 30.1 °F 30.41 in Calm     71% 0.00 in 139.00 W/m2
11:44 38.6 °F 29.7 °F 30.40 in Calm     70% 0.00 in 148.00 W/m2
11:49 38.4 °F 29.5 °F 30.41 in Calm     70% 0.00 in 554.00 W/m2
11:54 38.5 °F 29.9 °F 30.40 in Calm     71% 0.00 in 533.00 W/m2
11:59 39.4 °F 30.8 °F 30.40 in ENE 3.5 mph   71% 0.00 in 563.00 W/m2
12:04 40.4 °F 32.4 °F 30.40 in NNE 1.2 mph 0.5 mph 73% 0.00 in 587.00 W/m2
12:09 40.7 °F 31.3 °F 30.40 in ENE 1.2 mph   69% 0.00 in 596.00 W/m2
12:14 41.4 °F 32.7 °F 30.39 in ENE 4.6 mph 2.2 mph 71% 0.00 in 671.00 W/m2
12:19 41.6 °F 31.4 °F 30.39 in ESE 5.8 mph 1.9 mph 67% 0.00 in 577.00 W/m2
12:24 41.5 °F 31.0 °F 30.39 in Calm     66% 0.00 in 246.00 W/m2
12:29 40.9 °F 30.8 °F 30.38 in East 4.6 mph 2.3 mph 67% 0.00 in 251.00 W/m2
12:34 40.1 °F 30.4 °F 30.38 in East 3.5 mph 0.9 mph 68% 0.00 in 174.00 W/m2
12:39 39.5 °F 30.2 °F 30.37 in Calm     69% 0.00 in 178.00 W/m2
12:44 39.2 °F 29.9 °F 30.37 in Calm     69% 0.00 in 213.00 W/m2
12:49 39.6 °F 31.0 °F 30.38 in ENE 3.5 mph 1.3 mph 71% 0.00 in 213.00 W/m2
12:54 39.6 °F 30.3 °F 30.37 in Calm     69% 0.00 in 176.00 W/m2
12:59 39.5 °F 30.5 °F 30.37 in Calm     70% 0.00 in 192.00 W/m2
13:04 39.4 °F 30.8 °F 30.37 in East 4.6 mph 2.2 mph 71% 0.00 in 148.00 W/m2
13:09 39.2 °F 30.2 °F 30.37 in ENE 3.5 mph 1.0 mph 70% 0.00 in 146.00 W/m2
13:14 39.0 °F 30.0 °F 30.37 in NE 5.8 mph 0.6 mph 70% 0.00 in 135.00 W/m2
13:19 39.1 °F 30.1 °F 30.37 in NE 2.3 mph   70% 0.00 in 116.00 W/m2
13:24 39.0 °F 30.0 °F 30.37 in Calm     70% 0.00 in 141.00 W/m2
13:29 39.5 °F 30.9 °F 30.37 in ENE 3.5 mph 1.4 mph 71% 0.00 in 438.00 W/m2
13:34 40.2 °F 31.2 °F 30.36 in Calm   0.2 mph 70% 0.00 in 461.00 W/m2
13:39 40.9 °F 31.5 °F 30.36 in SE 3.0 mph 1.3 mph 69% 0.00 in 380.00 W/m2
13:44 41.1 °F 30.6 °F 30.36 in Calm   0.1 mph 66% 0.00 in 432.00 W/m2
13:49 41.5 °F 30.6 °F 30.36 in East 1.2 mph 0.2 mph 65% 0.00 in 448.00 W/m2
13:54 41.8 °F 31.3 °F 30.36 in SE 1.2 mph   66% 0.00 in 438.00 W/m2
13:59 41.9 °F 30.6 °F 30.36 in East 3.5 mph 0.7 mph 64% 0.00 in 225.00 W/m2
14:04 41.8 °F 31.3 °F 30.36 in East 1.2 mph 0.1 mph 66% 0.00 in 160.00 W/m2
14:09 41.5 °F 30.6 °F 30.35 in NE 1.2 mph 0.3 mph 65% 0.00 in 381.00 W/m2
14:14 41.7 °F 31.2 °F 30.35 in ENE 4.6 mph 1.4 mph 66% 0.00 in 422.00 W/m2
14:19 41.8 °F 30.9 °F 30.35 in NE 3.5 mph 1.4 mph 65% 0.00 in 253.00 W/m2
14:24 41.5 °F 30.6 °F 30.35 in ENE 3.5 mph 0.2 mph 65% 0.00 in 134.00 W/m2
14:29 41.0 °F 30.5 °F 30.34 in ENE 1.2 mph   66% 0.00 in 153.00 W/m2
14:34 40.6 °F 30.1 °F 30.34 in Calm     66% 0.00 in 79.00 W/m2
14:39 40.1 °F 29.6 °F 30.34 in Calm     66% 0.00 in 95.00 W/m2
14:44 40.0 °F 30.6 °F 30.34 in Calm     69% 0.00 in 221.00 W/m2
14:49 40.2 °F 30.8 °F 30.34 in NNE 1.2 mph 0.4 mph 69% 0.00 in 274.00 W/m2
14:54 40.7 °F 31.0 °F 30.34 in North 2.0 mph 0.8 mph 68% 0.00 in 264.00 W/m2
14:59 41.0 °F 31.2 °F 30.34 in NE 3.5 mph 0.2 mph 68% 0.00 in 216.00 W/m2
15:04 41.0 °F 30.9 °F 30.34 in NNE 3.5 mph 1.5 mph 67% 0.00 in 200.00 W/m2
15:09 41.1 °F 31.3 °F 30.34 in ENE 3.0 mph 0.9 mph 68% 0.00 in 207.00 W/m2
15:14 41.1 °F 31.3 °F 30.33 in ENE 3.5 mph 3.0 mph 68% 0.00 in 207.00 W/m2
15:19 41.0 °F 30.9 °F 30.33 in ENE 2.0 mph 0.9 mph 67% 0.00 in 148.00 W/m2
15:24 40.8 °F 30.3 °F 30.33 in ENE 2.3 mph 0.3 mph 66% 0.00 in 111.00 W/m2
15:29 40.6 °F 30.5 °F 30.33 in Calm     67% 0.00 in 128.00 W/m2
15:34 40.6 °F 30.5 °F 30.33 in Calm     67% 0.00 in 125.00 W/m2
15:39 40.6 °F 30.5 °F 30.33 in ENE 1.2 mph 0.4 mph 67% 0.00 in 65.00 W/m2
15:44 40.2 °F 30.5 °F 30.33 in East 3.5 mph   68% 0.00 in 53.00 W/m2
15:49 39.9 °F 30.5 °F 30.33 in ENE 3.5 mph 1.2 mph 69% 0.00 in 49.00 W/m2
15:54 39.7 °F 30.7 °F 30.33 in Calm     70% 0.00 in 49.00 W/m2
15:59 39.5 °F 30.5 °F 30.33 in Calm     70% 0.00 in 39.00 W/m2
16:04 39.3 °F 30.7 °F 30.33 in Calm     71% 0.00 in 35.00 W/m2
16:09 39.1 °F 30.8 °F 30.33 in Calm     72% 0.00 in 26.00 W/m2
16:14 38.9 °F 30.6 °F 30.33 in Calm     72% 0.00 in 18.00 W/m2
16:19 38.6 °F 30.7 °F 30.33 in Calm     73% 0.00 in 14.00 W/m2
16:25 38.4 °F 30.8 °F 30.33 in Calm     74% 0.00 in 9.00 W/m2
16:29 38.1 °F 30.2 °F 30.33 in Calm     73% 0.00 in 5.00 W/m2
16:34 37.9 °F 30.4 °F 30.33 in ENE 3.5 mph   74% 0.00 in 0.00 W/m2
16:39 37.7 °F 30.8 °F 30.32 in ENE 3.5 mph 2.4 mph 76% 0.00 in 0.00 W/m2
16:44 37.5 °F 30.9 °F 30.32 in ENE 4.0 mph 2.8 mph 77% 0.00 in 0.00 W/m2
16:49 37.3 °F 30.7 °F 30.32 in ENE 3.5 mph 2.2 mph 77% 0.00 in 0.00 W/m2
16:54 37.0 °F 30.8 °F 30.32 in ENE 3.5 mph 1.9 mph 78% 0.00 in 0.00 W/m2
16:59 36.8 °F 30.6 °F 30.32 in ENE 3.5 mph 2.0 mph 78% 0.00 in 0.00 W/m2
17:04 36.5 °F 30.3 °F 30.32 in ENE 3.5 mph 1.7 mph 78% 0.00 in 0.00 W/m2
17:09 36.2 °F 30.3 °F 30.32 in ENE 2.3 mph 1.6 mph 79% 0.00 in 0.00 W/m2
17:14 35.9 °F 30.3 °F 30.32 in Calm     80% 0.00 in 0.00 W/m2
17:19 35.6 °F 30.3 °F 30.32 in Calm     81% 0.00 in 0.00 W/m2
17:24 35.4 °F 30.5 °F 30.32 in Calm     82% 0.00 in 0.00 W/m2
17:29 35.2 °F 30.3 °F 30.32 in ENE 2.3 mph 1.1 mph 82% 0.00 in 0.00 W/m2
17:34 35.0 °F 30.4 °F 30.32 in ENE 2.3 mph 0.6 mph 83% 0.00 in 0.00 W/m2
17:39 34.7 °F 30.1 °F 30.32 in Calm     83% 0.00 in 0.00 W/m2
17:44 34.6 °F 30.3 °F 30.32 in ENE 2.3 mph 1.1 mph 84% 0.00 in 0.00 W/m2
17:49 34.5 °F 30.2 °F 30.32 in ENE 2.3 mph 2.0 mph 84% 0.00 in 0.00 W/m2
17:54 34.4 °F 30.1 °F 30.32 in ENE 3.5 mph 2.2 mph 84% 0.00 in 0.00 W/m2
17:59 34.4 °F 30.1 °F 30.32 in ENE 2.3 mph 1.3 mph 84% 0.00 in 0.00 W/m2
18:04 34.4 °F 30.1 °F 30.32 in ENE 3.5 mph 1.5 mph 84% 0.00 in 0.00 W/m2
18:09 34.3 °F 30.0 °F 30.32 in ENE 2.3 mph 1.1 mph 84% 0.00 in 0.00 W/m2
18:14 34.2 °F 30.2 °F 30.32 in NE 3.5 mph 1.9 mph 85% 0.00 in 0.00 W/m2
18:19 34.1 °F 30.1 °F 30.32 in NE 3.5 mph 2.5 mph 85% 0.00 in 0.00 W/m2
18:24 34.1 °F 30.1 °F 30.31 in NE 4.0 mph 2.3 mph 85% 0.00 in 0.00 W/m2
18:29 34.1 °F 30.4 °F 30.31 in NE 3.5 mph 3.2 mph 86% 0.00 in 0.00 W/m2
18:34 34.0 °F 30.3 °F 30.31 in NNE 3.5 mph 2.8 mph 86% 0.00 in 0.00 W/m2
18:39 34.1 °F 30.4 °F 30.31 in NNE 3.5 mph 2.6 mph 86% 0.00 in 0.00 W/m2
18:44 34.2 °F 30.4 °F 30.31 in NNE 5.0 mph 3.1 mph 86% 0.00 in 0.00 W/m2
18:49 34.3 °F 30.5 °F 30.31 in NNE 3.5 mph 3.1 mph 86% 0.00 in 0.00 W/m2
18:54 34.4 °F 30.6 °F 30.31 in NNE 3.5 mph 2.6 mph 86% 0.00 in 0.00 W/m2
18:59 34.4 °F 30.6 °F 30.30 in NNE 4.0 mph 2.3 mph 86% 0.00 in 0.00 W/m2
19:04 34.5 °F 30.7 °F 30.31 in NE 3.5 mph 2.5 mph 86% 0.00 in 0.00 W/m2
19:09 34.5 °F 30.7 °F 30.31 in NE 2.3 mph 2.4 mph 86% 0.00 in 0.00 W/m2
19:14 34.4 °F 30.6 °F 30.30 in NE 4.6 mph 3.7 mph 86% 0.00 in 0.00 W/m2
19:19 34.4 °F 30.6 °F 30.30 in NE 5.8 mph 3.7 mph 86% 0.00 in 0.00 W/m2
19:24 34.4 °F 30.9 °F 30.30 in NE 5.8 mph 3.2 mph 87% 0.00 in 0.00 W/m2
19:29 34.5 °F 31.0 °F 30.30 in NE 5.8 mph 4.6 mph 87% 0.00 in 0.00 W/m2
19:34 34.7 °F 31.2 °F 30.30 in NE 4.6 mph 3.2 mph 87% 0.00 in 0.00 W/m2
19:39 34.8 °F 31.3 °F 30.30 in ENE 5.0 mph 3.6 mph 87% 0.00 in 0.00 W/m2
19:44 34.8 °F 31.3 °F 30.29 in ENE 6.9 mph 4.5 mph 87% 0.00 in 0.00 W/m2
19:49 34.9 °F 31.4 °F 30.30 in ENE 4.6 mph 3.4 mph 87% 0.00 in 0.00 W/m2
19:54 34.9 °F 31.4 °F 30.30 in ENE 4.6 mph 2.9 mph 87% 0.00 in 0.00 W/m2
19:59 35.0 °F 31.5 °F 30.30 in NE 3.5 mph 2.2 mph 87% 0.00 in 0.00 W/m2
20:04 35.0 °F 31.5 °F 30.30 in NE 3.5 mph 1.5 mph 87% 0.00 in 0.00 W/m2
20:09 35.0 °F 31.5 °F 30.30 in NE 4.6 mph 2.6 mph 87% 0.00 in 0.00 W/m2
20:14 35.0 °F 31.5 °F 30.30 in NE 3.5 mph 1.8 mph 87% 0.00 in 0.00 W/m2
20:19 35.0 °F 31.8 °F 30.30 in NE 1.2 mph 1.1 mph 88% 0.00 in 0.00 W/m2
20:24 35.0 °F 31.8 °F 30.30 in ENE 3.5 mph 3.0 mph 88% 0.00 in 0.00 W/m2
20:29 35.0 °F 31.8 °F 30.30 in ENE 3.5 mph 1.3 mph 88% 0.00 in 0.00 W/m2
20:34 35.0 °F 31.8 °F 30.30 in ENE 2.3 mph 0.3 mph 88% 0.00 in 0.00 W/m2
20:39 35.0 °F 31.8 °F 30.30 in ENE 2.3 mph 1.1 mph 88% 0.00 in 0.00 W/m2
20:44 35.1 °F 31.9 °F 30.30 in Calm     88% 0.00 in 0.00 W/m2
20:49 35.1 °F 31.9 °F 30.30 in Calm     88% 0.00 in 0.00 W/m2
20:54 35.0 °F 31.8 °F 30.31 in Calm     88% 0.00 in 0.00 W/m2
20:59 35.0 °F 31.8 °F 30.31 in Calm     88% 0.00 in 0.00 W/m2
21:04 35.0 °F 31.8 °F 30.31 in Calm     88% 0.00 in 0.00 W/m2
21:09 35.1 °F 32.2 °F 30.31 in Calm     89% 0.00 in 0.00 W/m2
21:14 35.0 °F 32.1 °F 30.31 in Calm     89% 0.00 in 0.00 W/m2
21:19 35.0 °F 32.1 °F 30.30 in Calm     89% 0.00 in 0.00 W/m2
21:24 35.0 °F 32.1 °F 30.30 in Calm     89% 0.00 in 0.00 W/m2
21:29 35.0 °F 32.1 °F 30.31 in Calm     89% 0.00 in 0.00 W/m2
21:34 35.0 °F 32.1 °F 30.30 in Calm     89% 0.00 in 0.00 W/m2
21:39 34.9 °F 32.3 °F 30.30 in Calm     90% 0.00 in 0.00 W/m2
21:44 34.9 °F 32.3 °F 30.30 in Calm     90% 0.00 in 0.00 W/m2
21:49 34.9 °F 32.3 °F 30.30 in Calm     90% 0.00 in 0.00 W/m2
21:54 34.9 °F 32.3 °F 30.30 in Calm     90% 0.00 in 0.00 W/m2
21:59 34.9 °F 32.3 °F 30.29 in ENE 1.0 mph   90% 0.00 in 0.00 W/m2
22:04 34.8 °F 32.2 °F 30.29 in ENE 1.2 mph 0.7 mph 90% 0.00 in 0.00 W/m2
22:09 34.8 °F 32.2 °F 30.29 in Calm     90% 0.00 in 0.00 W/m2
22:14 34.8 °F 32.2 °F 30.28 in Calm     90% 0.00 in 0.00 W/m2
22:19 34.7 °F 32.1 °F 30.28 in Calm     90% 0.00 in 0.00 W/m2
22:24 34.7 °F 32.3 °F 30.28 in Calm     91% 0.00 in 0.00 W/m2
22:29 34.7 °F 32.3 °F 30.28 in Calm     91% 0.00 in 0.00 W/m2
22:34 34.7 °F 32.3 °F 30.28 in Calm     91% 0.00 in 0.00 W/m2
22:39 34.7 °F 32.3 °F 30.28 in Calm     91% 0.00 in 0.00 W/m2
22:44 34.7 °F 32.3 °F 30.28 in Calm     91% 0.00 in 0.00 W/m2
22:49 34.7 °F 32.3 °F 30.27 in Calm     91% 0.00 in 0.00 W/m2
22:54 34.7 °F 32.3 °F 30.27 in Calm     91% 0.00 in 0.00 W/m2
22:59 34.7 °F 32.3 °F 30.27 in Calm     91% 0.00 in 0.00 W/m2
23:04 34.7 °F 32.3 °F 30.27 in Calm     91% 0.00 in 0.00 W/m2
23:09 34.7 °F 32.3 °F 30.27 in Calm     91% 0.00 in 0.00 W/m2
23:14 34.7 °F 32.3 °F 30.27 in Calm     91% 0.00 in 0.00 W/m2
23:19 34.7 °F 32.3 °F 30.27 in Calm     91% 0.00 in 0.00 W/m2
23:24 34.7 °F 32.3 °F 30.27 in Calm     91% 0.00 in 0.00 W/m2
23:29 34.7 °F 32.3 °F 30.27 in Calm     91% 0.00 in 0.00 W/m2
23:34 34.7 °F 32.3 °F 30.26 in Calm     91% 0.00 in 0.00 W/m2
23:39 34.7 °F 32.3 °F 30.26 in Calm     91% 0.00 in 0.00 W/m2
23:44 34.7 °F 32.3 °F 30.26 in Calm     91% 0.00 in 0.00 W/m2
23:49 34.8 °F 32.4 °F 30.26 in Calm     91% 0.00 in 0.00 W/m2
23:54 34.8 °F 32.4 °F 30.26 in Calm     91% 0.00 in 0.00 W/m2
23:59 34.8 °F 32.4 °F 30.26 in Calm     91% 0.00 in 0.00 W/m2
Bourbonnais, Illinois, USA
Compliments of Weather Underground - 4 mb